sensor_id;sensor_type;location;lat;lon;timestamp;pressure;altitude;pressure_sealevel;temperature
69597;BMP180;56802;51.184;-115.558;2022-09-09T00:01:45;86718.00;;;
69597;BMP180;56802;51.184;-115.558;2022-09-09T00:04:36;86714.40;;;
69597;BMP180;56802;51.184;-115.558;2022-09-09T00:07:21;86711.00;;;
69597;BMP180;56802;51.184;-115.558;2022-09-09T00:10:03;86712.60;;;
69597;BMP180;56802;51.184;-115.558;2022-09-09T00:16:25;86713.20;;;
69597;BMP180;56802;51.184;-115.558;2022-09-09T00:24:46;86717.80;;;
69597;BMP180;56802;51.184;-115.558;2022-09-09T00:27:34;86716.00;;;
69597;BMP180;56802;51.184;-115.558;2022-09-09T00:32:58;86715.00;;;
69597;BMP180;56802;51.184;-115.558;2022-09-09T00:35:48;86718.60;;;
69597;BMP180;56802;51.184;-115.558;2022-09-09T00:38:51;86720.20;;;
69597;BMP180;56802;51.184;-115.558;2022-09-09T00:42:02;86723.60;;;
69597;BMP180;56802;51.184;-115.558;2022-09-09T00:47:56;86724.60;;;
69597;BMP180;56802;51.184;-115.558;2022-09-09T00:50:59;86727.00;;;
69597;BMP180;56802;51.184;-115.558;2022-09-09T00:57:01;86731.20;;;
69597;BMP180;56802;51.184;-115.558;2022-09-09T01:02:49;86737.40;;;
69597;BMP180;56802;51.184;-115.558;2022-09-09T01:06:20;86747.00;;;
69597;BMP180;56802;51.184;-115.558;2022-09-09T01:09:24;86748.80;;;
69597;BMP180;56802;51.184;-115.558;2022-09-09T01:12:24;86751.40;;;
69597;BMP180;56802;51.184;-115.558;2022-09-09T01:15:18;86753.80;;;
69597;BMP180;56802;51.184;-115.558;2022-09-09T01:18:12;86761.60;;;
69597;BMP180;56802;51.184;-115.558;2022-09-09T01:28:11;86767.40;;;
69597;BMP180;56802;51.184;-115.558;2022-09-09T01:30:42;86764.20;;;
69597;BMP180;56802;51.184;-115.558;2022-09-09T01:33:16;86770.20;;;
69597;BMP180;56802;51.184;-115.558;2022-09-09T01:36:25;86771.80;;;
69597;BMP180;56802;51.184;-115.558;2022-09-09T01:38:56;86768.40;;;
69597;BMP180;56802;51.184;-115.558;2022-09-09T01:41:26;86767.80;;;
69597;BMP180;56802;51.184;-115.558;2022-09-09T01:43:56;86774.60;;;
69597;BMP180;56802;51.184;-115.558;2022-09-09T01:46:26;86772.20;;;
69597;BMP180;56802;51.184;-115.558;2022-09-09T02:02:18;86776.60;;;
69597;BMP180;56802;51.184;-115.558;2022-09-09T02:04:52;86779.60;;;
69597;BMP180;56802;51.184;-115.558;2022-09-09T02:07:33;86780.40;;;
69597;BMP180;56802;51.184;-115.558;2022-09-09T02:10:37;86785.20;;;
69597;BMP180;56802;51.184;-115.558;2022-09-09T02:13:17;86787.00;;;
69597;BMP180;56802;51.184;-115.558;2022-09-09T02:16:28;86787.60;;;
69597;BMP180;56802;51.184;-115.558;2022-09-09T02:19:27;86792.00;;;
69597;BMP180;56802;51.184;-115.558;2022-09-09T02:22:00;86799.00;;;
69597;BMP180;56802;51.184;-115.558;2022-09-09T02:24:36;86808.20;;;
69597;BMP180;56802;51.184;-115.558;2022-09-09T02:27:09;86809.40;;;
69597;BMP180;56802;51.184;-115.558;2022-09-09T02:29:41;86809.00;;;
69597;BMP180;56802;51.184;-115.558;2022-09-09T02:32:17;86812.60;;;
69597;BMP180;56802;51.184;-115.558;2022-09-09T02:35:06;86818.40;;;
69597;BMP180;56802;51.184;-115.558;2022-09-09T02:37:39;86818.80;;;
69597;BMP180;56802;51.184;-115.558;2022-09-09T02:40:12;86824.20;;;
69597;BMP180;56802;51.184;-115.558;2022-09-09T02:42:47;86827.20;;;
69597;BMP180;56802;51.184;-115.558;2022-09-09T02:45:20;86829.20;;;
69597;BMP180;56802;51.184;-115.558;2022-09-09T02:48:14;86831.00;;;
69597;BMP180;56802;51.184;-115.558;2022-09-09T02:51:45;86836.40;;;
69597;BMP180;56802;51.184;-115.558;2022-09-09T02:54:49;86835.20;;;
69597;BMP180;56802;51.184;-115.558;2022-09-09T02:57:28;86834.00;;;
69597;BMP180;56802;51.184;-115.558;2022-09-09T02:59:59;86831.00;;;
69597;BMP180;56802;51.184;-115.558;2022-09-09T03:02:30;86830.00;;;
69597;BMP180;56802;51.184;-115.558;2022-09-09T03:04:59;86826.20;;;
69597;BMP180;56802;51.184;-115.558;2022-09-09T03:07:28;86822.00;;;
69597;BMP180;56802;51.184;-115.558;2022-09-09T03:09:57;86821.00;;;
69597;BMP180;56802;51.184;-115.558;2022-09-09T03:12:27;86822.80;;;
69597;BMP180;56802;51.184;-115.558;2022-09-09T03:14:56;86827.80;;;
69597;BMP180;56802;51.184;-115.558;2022-09-09T03:17:25;86831.60;;;
69597;BMP180;56802;51.184;-115.558;2022-09-09T03:19:56;86838.20;;;
69597;BMP180;56802;51.184;-115.558;2022-09-09T03:22:27;86838.40;;;
69597;BMP180;56802;51.184;-115.558;2022-09-09T03:24:56;86837.00;;;
69597;BMP180;56802;51.184;-115.558;2022-09-09T03:27:26;86849.00;;;
69597;BMP180;56802;51.184;-115.558;2022-09-09T03:29:55;86850.80;;;
69597;BMP180;56802;51.184;-115.558;2022-09-09T03:32:25;86851.80;;;
69597;BMP180;56802;51.184;-115.558;2022-09-09T03:34:55;86857.20;;;
69597;BMP180;56802;51.184;-115.558;2022-09-09T03:37:24;86856.60;;;
69597;BMP180;56802;51.184;-115.558;2022-09-09T03:39:53;86860.80;;;
69597;BMP180;56802;51.184;-115.558;2022-09-09T03:42:26;86865.60;;;
69597;BMP180;56802;51.184;-115.558;2022-09-09T03:44:56;86863.20;;;
69597;BMP180;56802;51.184;-115.558;2022-09-09T03:47:26;86860.60;;;
69597;BMP180;56802;51.184;-115.558;2022-09-09T03:49:55;86855.40;;;
69597;BMP180;56802;51.184;-115.558;2022-09-09T03:52:24;86862.00;;;
69597;BMP180;56802;51.184;-115.558;2022-09-09T03:54:54;86856.80;;;
69597;BMP180;56802;51.184;-115.558;2022-09-09T03:57:25;86860.20;;;
69597;BMP180;56802;51.184;-115.558;2022-09-09T03:59:54;86858.80;;;
69597;BMP180;56802;51.184;-115.558;2022-09-09T04:02:26;86862.60;;;
69597;BMP180;56802;51.184;-115.558;2022-09-09T04:04:55;86866.20;;;
69597;BMP180;56802;51.184;-115.558;2022-09-09T04:07:25;86869.20;;;
69597;BMP180;56802;51.184;-115.558;2022-09-09T04:09:56;86869.20;;;
69597;BMP180;56802;51.184;-115.558;2022-09-09T04:12:25;86868.00;;;
69597;BMP180;56802;51.184;-115.558;2022-09-09T04:14:54;86863.80;;;
69597;BMP180;56802;51.184;-115.558;2022-09-09T04:17:24;86866.20;;;
69597;BMP180;56802;51.184;-115.558;2022-09-09T04:19:53;86865.40;;;
69597;BMP180;56802;51.184;-115.558;2022-09-09T04:22:22;86871.60;;;
69597;BMP180;56802;51.184;-115.558;2022-09-09T04:24:51;86871.20;;;
69597;BMP180;56802;51.184;-115.558;2022-09-09T04:27:21;86875.20;;;
69597;BMP180;56802;51.184;-115.558;2022-09-09T04:29:50;86875.40;;;
69597;BMP180;56802;51.184;-115.558;2022-09-09T04:32:19;86874.80;;;
69597;BMP180;56802;51.184;-115.558;2022-09-09T04:34:49;86869.80;;;
69597;BMP180;56802;51.184;-115.558;2022-09-09T04:37:18;86878.00;;;
69597;BMP180;56802;51.184;-115.558;2022-09-09T04:39:47;86879.80;;;
69597;BMP180;56802;51.184;-115.558;2022-09-09T04:42:19;86886.40;;;
69597;BMP180;56802;51.184;-115.558;2022-09-09T04:44:48;86890.60;;;
69597;BMP180;56802;51.184;-115.558;2022-09-09T04:47:17;86890.80;;;
69597;BMP180;56802;51.184;-115.558;2022-09-09T04:49:46;86884.00;;;
69597;BMP180;56802;51.184;-115.558;2022-09-09T04:52:16;86888.40;;;
69597;BMP180;56802;51.184;-115.558;2022-09-09T04:54:45;86888.00;;;
69597;BMP180;56802;51.184;-115.558;2022-09-09T04:57:14;86888.20;;;
69597;BMP180;56802;51.184;-115.558;2022-09-09T04:59:45;86890.40;;;
69597;BMP180;56802;51.184;-115.558;2022-09-09T05:02:14;86891.40;;;
69597;BMP180;56802;51.184;-115.558;2022-09-09T05:04:44;86896.40;;;
69597;BMP180;56802;51.184;-115.558;2022-09-09T05:07:13;86897.40;;;
69597;BMP180;56802;51.184;-115.558;2022-09-09T05:09:43;86903.00;;;
69597;BMP180;56802;51.184;-115.558;2022-09-09T05:12:13;86905.60;;;
69597;BMP180;56802;51.184;-115.558;2022-09-09T05:14:45;86903.40;;;
69597;BMP180;56802;51.184;-115.558;2022-09-09T05:17:14;86908.80;;;
69597;BMP180;56802;51.184;-115.558;2022-09-09T05:19:44;86907.80;;;
69597;BMP180;56802;51.184;-115.558;2022-09-09T05:22:19;86913.40;;;
69597;BMP180;56802;51.184;-115.558;2022-09-09T05:24:49;86917.80;;;
69597;BMP180;56802;51.184;-115.558;2022-09-09T05:27:22;86920.80;;;
69597;BMP180;56802;51.184;-115.558;2022-09-09T05:29:52;86924.80;;;
69597;BMP180;56802;51.184;-115.558;2022-09-09T05:32:21;86926.80;;;
69597;BMP180;56802;51.184;-115.558;2022-09-09T05:34:50;86941.20;;;
69597;BMP180;56802;51.184;-115.558;2022-09-09T05:37:20;86945.40;;;
69597;BMP180;56802;51.184;-115.558;2022-09-09T05:39:49;86949.20;;;
69597;BMP180;56802;51.184;-115.558;2022-09-09T05:42:19;86957.40;;;
69597;BMP180;56802;51.184;-115.558;2022-09-09T05:44:48;86971.00;;;
69597;BMP180;56802;51.184;-115.558;2022-09-09T05:47:19;86967.20;;;
69597;BMP180;56802;51.184;-115.558;2022-09-09T05:49:48;86983.60;;;
69597;BMP180;56802;51.184;-115.558;2022-09-09T05:52:18;86983.20;;;
69597;BMP180;56802;51.184;-115.558;2022-09-09T05:54:47;86987.80;;;
69597;BMP180;56802;51.184;-115.558;2022-09-09T05:57:16;87003.20;;;
69597;BMP180;56802;51.184;-115.558;2022-09-09T05:59:48;87000.00;;;
69597;BMP180;56802;51.184;-115.558;2022-09-09T06:02:18;86992.80;;;
69597;BMP180;56802;51.184;-115.558;2022-09-09T06:04:48;87005.20;;;
69597;BMP180;56802;51.184;-115.558;2022-09-09T06:07:17;87011.00;;;
69597;BMP180;56802;51.184;-115.558;2022-09-09T06:09:47;87007.60;;;
69597;BMP180;56802;51.184;-115.558;2022-09-09T06:12:16;87015.00;;;
69597;BMP180;56802;51.184;-115.558;2022-09-09T06:14:45;87015.40;;;
69597;BMP180;56802;51.184;-115.558;2022-09-09T06:17:14;87019.20;;;
69597;BMP180;56802;51.184;-115.558;2022-09-09T06:19:43;87019.40;;;
69597;BMP180;56802;51.184;-115.558;2022-09-09T06:22:13;87022.80;;;
69597;BMP180;56802;51.184;-115.558;2022-09-09T06:24:42;87031.80;;;
69597;BMP180;56802;51.184;-115.558;2022-09-09T06:27:13;87039.80;;;
69597;BMP180;56802;51.184;-115.558;2022-09-09T06:29:42;87039.40;;;
69597;BMP180;56802;51.184;-115.558;2022-09-09T06:32:11;87041.80;;;
69597;BMP180;56802;51.184;-115.558;2022-09-09T06:34:40;87040.40;;;
69597;BMP180;56802;51.184;-115.558;2022-09-09T06:37:10;87045.60;;;
69597;BMP180;56802;51.184;-115.558;2022-09-09T06:39:39;87046.60;;;
69597;BMP180;56802;51.184;-115.558;2022-09-09T06:42:09;87041.60;;;
69597;BMP180;56802;51.184;-115.558;2022-09-09T06:44:38;87051.20;;;
69597;BMP180;56802;51.184;-115.558;2022-09-09T06:47:07;87048.60;;;
69597;BMP180;56802;51.184;-115.558;2022-09-09T06:49:37;87048.40;;;
69597;BMP180;56802;51.184;-115.558;2022-09-09T06:52:06;87055.40;;;
69597;BMP180;56802;51.184;-115.558;2022-09-09T06:54:37;87060.60;;;
69597;BMP180;56802;51.184;-115.558;2022-09-09T06:57:07;87057.40;;;
69597;BMP180;56802;51.184;-115.558;2022-09-09T06:59:57;87050.20;;;
69597;BMP180;56802;51.184;-115.558;2022-09-09T07:02:26;87048.40;;;
69597;BMP180;56802;51.184;-115.558;2022-09-09T07:04:55;87046.80;;;
69597;BMP180;56802;51.184;-115.558;2022-09-09T07:07:25;87052.80;;;
69597;BMP180;56802;51.184;-115.558;2022-09-09T07:09:55;87059.80;;;
69597;BMP180;56802;51.184;-115.558;2022-09-09T07:12:25;87072.20;;;
69597;BMP180;56802;51.184;-115.558;2022-09-09T07:14:54;87070.60;;;
69597;BMP180;56802;51.184;-115.558;2022-09-09T07:17:24;87076.60;;;
69597;BMP180;56802;51.184;-115.558;2022-09-09T07:19:53;87088.60;;;
69597;BMP180;56802;51.184;-115.558;2022-09-09T07:22:22;87095.20;;;
69597;BMP180;56802;51.184;-115.558;2022-09-09T07:24:52;87099.60;;;
69597;BMP180;56802;51.184;-115.558;2022-09-09T07:27:24;87104.00;;;
69597;BMP180;56802;51.184;-115.558;2022-09-09T07:29:53;87103.20;;;
69597;BMP180;56802;51.184;-115.558;2022-09-09T07:32:23;87110.60;;;
69597;BMP180;56802;51.184;-115.558;2022-09-09T07:34:54;87116.80;;;
69597;BMP180;56802;51.184;-115.558;2022-09-09T07:37:24;87118.00;;;
69597;BMP180;56802;51.184;-115.558;2022-09-09T07:39:54;87122.20;;;
69597;BMP180;56802;51.184;-115.558;2022-09-09T07:42:23;87113.20;;;
69597;BMP180;56802;51.184;-115.558;2022-09-09T07:44:52;87118.80;;;
69597;BMP180;56802;51.184;-115.558;2022-09-09T07:47:23;87129.80;;;
69597;BMP180;56802;51.184;-115.558;2022-09-09T07:49:53;87134.60;;;
69597;BMP180;56802;51.184;-115.558;2022-09-09T07:52:23;87132.20;;;
69597;BMP180;56802;51.184;-115.558;2022-09-09T07:54:52;87143.00;;;
69597;BMP180;56802;51.184;-115.558;2022-09-09T07:57:21;87141.40;;;
69597;BMP180;56802;51.184;-115.558;2022-09-09T07:59:53;87145.20;;;
69597;BMP180;56802;51.184;-115.558;2022-09-09T08:02:25;87140.80;;;
69597;BMP180;56802;51.184;-115.558;2022-09-09T08:04:56;87145.40;;;
69597;BMP180;56802;51.184;-115.558;2022-09-09T08:07:25;87149.60;;;
69597;BMP180;56802;51.184;-115.558;2022-09-09T08:09:55;87152.20;;;
69597;BMP180;56802;51.184;-115.558;2022-09-09T08:12:26;87154.60;;;
69597;BMP180;56802;51.184;-115.558;2022-09-09T08:14:55;87149.20;;;
69597;BMP180;56802;51.184;-115.558;2022-09-09T08:17:25;87149.80;;;
69597;BMP180;56802;51.184;-115.558;2022-09-09T08:19:54;87149.20;;;
69597;BMP180;56802;51.184;-115.558;2022-09-09T08:22:24;87146.80;;;
69597;BMP180;56802;51.184;-115.558;2022-09-09T08:24:53;87150.20;;;
69597;BMP180;56802;51.184;-115.558;2022-09-09T08:27:23;87151.80;;;
69597;BMP180;56802;51.184;-115.558;2022-09-09T08:29:52;87150.20;;;
69597;BMP180;56802;51.184;-115.558;2022-09-09T08:32:21;87147.40;;;
69597;BMP180;56802;51.184;-115.558;2022-09-09T08:34:51;87146.80;;;
69597;BMP180;56802;51.184;-115.558;2022-09-09T08:37:27;87144.60;;;
69597;BMP180;56802;51.184;-115.558;2022-09-09T08:39:57;87146.00;;;
69597;BMP180;56802;51.184;-115.558;2022-09-09T08:42:35;87141.80;;;
69597;BMP180;56802;51.184;-115.558;2022-09-09T08:50:39;87140.20;;;
69597;BMP180;56802;51.184;-115.558;2022-09-09T08:53:22;87134.40;;;
69597;BMP180;56802;51.184;-115.558;2022-09-09T08:56:11;87137.60;;;
69597;BMP180;56802;51.184;-115.558;2022-09-09T08:58:51;87141.00;;;
69597;BMP180;56802;51.184;-115.558;2022-09-09T09:02:00;87137.00;;;
69597;BMP180;56802;51.184;-115.558;2022-09-09T09:04:58;87136.00;;;
69597;BMP180;56802;51.184;-115.558;2022-09-09T09:10:50;87146.20;;;
69597;BMP180;56802;51.184;-115.558;2022-09-09T09:14:01;87150.00;;;
69597;BMP180;56802;51.184;-115.558;2022-09-09T09:19:29;87148.60;;;
69597;BMP180;56802;51.184;-115.558;2022-09-09T09:27:46;87148.40;;;
69597;BMP180;56802;51.184;-115.558;2022-09-09T09:30:22;87146.00;;;
69597;BMP180;56802;51.184;-115.558;2022-09-09T09:33:04;87142.60;;;
69597;BMP180;56802;51.184;-115.558;2022-09-09T09:35:34;87143.60;;;
69597;BMP180;56802;51.184;-115.558;2022-09-09T09:38:25;87144.40;;;
69597;BMP180;56802;51.184;-115.558;2022-09-09T09:41:15;87141.60;;;
69597;BMP180;56802;51.184;-115.558;2022-09-09T09:43:54;87147.60;;;
69597;BMP180;56802;51.184;-115.558;2022-09-09T09:46:26;87145.40;;;
69597;BMP180;56802;51.184;-115.558;2022-09-09T09:49:04;87150.00;;;
69597;BMP180;56802;51.184;-115.558;2022-09-09T09:51:35;87145.00;;;
69597;BMP180;56802;51.184;-115.558;2022-09-09T09:54:16;87145.20;;;
69597;BMP180;56802;51.184;-115.558;2022-09-09T09:56:47;87147.20;;;
69597;BMP180;56802;51.184;-115.558;2022-09-09T10:02:24;87147.40;;;
69597;BMP180;56802;51.184;-115.558;2022-09-09T10:05:14;87154.00;;;
69597;BMP180;56802;51.184;-115.558;2022-09-09T10:07:44;87151.20;;;
69597;BMP180;56802;51.184;-115.558;2022-09-09T10:10:26;87157.00;;;
69597;BMP180;56802;51.184;-115.558;2022-09-09T10:15:58;87161.20;;;
69597;BMP180;56802;51.184;-115.558;2022-09-09T10:25:08;87165.80;;;
69597;BMP180;56802;51.184;-115.558;2022-09-09T10:36:31;87178.60;;;
69597;BMP180;56802;51.184;-115.558;2022-09-09T10:42:14;87177.40;;;
69597;BMP180;56802;51.184;-115.558;2022-09-09T10:45:52;87180.00;;;
69597;BMP180;56802;51.184;-115.558;2022-09-09T10:57:31;87175.20;;;
69597;BMP180;56802;51.184;-115.558;2022-09-09T11:03:33;87168.40;;;
69597;BMP180;56802;51.184;-115.558;2022-09-09T11:06:16;87167.40;;;
69597;BMP180;56802;51.184;-115.558;2022-09-09T11:08:47;87168.20;;;
69597;BMP180;56802;51.184;-115.558;2022-09-09T11:17:22;87164.60;;;
69597;BMP180;56802;51.184;-115.558;2022-09-09T11:19:52;87161.80;;;
69597;BMP180;56802;51.184;-115.558;2022-09-09T11:22:35;87159.20;;;
69597;BMP180;56802;51.184;-115.558;2022-09-09T11:25:34;87165.80;;;
69597;BMP180;56802;51.184;-115.558;2022-09-09T11:28:43;87171.40;;;
69597;BMP180;56802;51.184;-115.558;2022-09-09T11:40:17;87176.80;;;
69597;BMP180;56802;51.184;-115.558;2022-09-09T11:42:48;87179.60;;;
69597;BMP180;56802;51.184;-115.558;2022-09-09T11:45:24;87180.20;;;
69597;BMP180;56802;51.184;-115.558;2022-09-09T11:48:00;87175.80;;;
69597;BMP180;56802;51.184;-115.558;2022-09-09T11:50:36;87173.20;;;
69597;BMP180;56802;51.184;-115.558;2022-09-09T11:53:20;87170.00;;;
69597;BMP180;56802;51.184;-115.558;2022-09-09T11:56:12;87165.80;;;
69597;BMP180;56802;51.184;-115.558;2022-09-09T11:59:02;87161.80;;;
69597;BMP180;56802;51.184;-115.558;2022-09-09T12:01:44;87165.60;;;
69597;BMP180;56802;51.184;-115.558;2022-09-09T12:04:37;87167.40;;;
69597;BMP180;56802;51.184;-115.558;2022-09-09T12:10:52;87170.00;;;
69597;BMP180;56802;51.184;-115.558;2022-09-09T12:12:49;87164.20;;;
69597;BMP180;56802;51.184;-115.558;2022-09-09T12:15:27;87163.60;;;
69597;BMP180;56802;51.184;-115.558;2022-09-09T12:17:59;87163.20;;;
69597;BMP180;56802;51.184;-115.558;2022-09-09T12:23:32;87162.60;;;
69597;BMP180;56802;51.184;-115.558;2022-09-09T12:32:24;87158.80;;;
69597;BMP180;56802;51.184;-115.558;2022-09-09T12:37:58;87160.20;;;
69597;BMP180;56802;51.184;-115.558;2022-09-09T12:40:31;87158.40;;;
69597;BMP180;56802;51.184;-115.558;2022-09-09T12:43:23;87167.40;;;
69597;BMP180;56802;51.184;-115.558;2022-09-09T12:46:01;87168.00;;;
69597;BMP180;56802;51.184;-115.558;2022-09-09T12:48:39;87166.20;;;
69597;BMP180;56802;51.184;-115.558;2022-09-09T12:51:30;87167.20;;;
69597;BMP180;56802;51.184;-115.558;2022-09-09T12:54:00;87164.40;;;
69597;BMP180;56802;51.184;-115.558;2022-09-09T12:56:32;87165.80;;;
69597;BMP180;56802;51.184;-115.558;2022-09-09T12:59:02;87163.00;;;
69597;BMP180;56802;51.184;-115.558;2022-09-09T13:01:33;87163.60;;;
69597;BMP180;56802;51.184;-115.558;2022-09-09T13:04:15;87160.20;;;
69597;BMP180;56802;51.184;-115.558;2022-09-09T13:06:48;87168.80;;;
69597;BMP180;56802;51.184;-115.558;2022-09-09T13:09:18;87167.20;;;
69597;BMP180;56802;51.184;-115.558;2022-09-09T13:11:54;87178.00;;;
69597;BMP180;56802;51.184;-115.558;2022-09-09T13:14:35;87181.00;;;
69597;BMP180;56802;51.184;-115.558;2022-09-09T13:17:15;87179.40;;;
69597;BMP180;56802;51.184;-115.558;2022-09-09T13:19:46;87174.60;;;
69597;BMP180;56802;51.184;-115.558;2022-09-09T13:25:02;87176.20;;;
69597;BMP180;56802;51.184;-115.558;2022-09-09T13:27:37;87178.20;;;
69597;BMP180;56802;51.184;-115.558;2022-09-09T13:35:57;87174.40;;;
69597;BMP180;56802;51.184;-115.558;2022-09-09T13:38:40;87178.40;;;
69597;BMP180;56802;51.184;-115.558;2022-09-09T13:41:23;87187.40;;;
69597;BMP180;56802;51.184;-115.558;2022-09-09T13:43:53;87188.20;;;
69597;BMP180;56802;51.184;-115.558;2022-09-09T13:46:39;87187.80;;;
69597;BMP180;56802;51.184;-115.558;2022-09-09T13:51:45;87194.40;;;
69597;BMP180;56802;51.184;-115.558;2022-09-09T13:54:18;87188.20;;;
69597;BMP180;56802;51.184;-115.558;2022-09-09T13:56:47;87188.40;;;
69597;BMP180;56802;51.184;-115.558;2022-09-09T13:59:20;87191.00;;;
69597;BMP180;56802;51.184;-115.558;2022-09-09T14:01:50;87190.80;;;
69597;BMP180;56802;51.184;-115.558;2022-09-09T14:04:20;87186.60;;;
69597;BMP180;56802;51.184;-115.558;2022-09-09T14:06:50;87193.40;;;
69597;BMP180;56802;51.184;-115.558;2022-09-09T14:09:20;87189.80;;;
69597;BMP180;56802;51.184;-115.558;2022-09-09T14:11:52;87193.20;;;
69597;BMP180;56802;51.184;-115.558;2022-09-09T14:14:23;87190.80;;;
69597;BMP180;56802;51.184;-115.558;2022-09-09T14:16:54;87194.60;;;
69597;BMP180;56802;51.184;-115.558;2022-09-09T14:19:23;87199.60;;;
69597;BMP180;56802;51.184;-115.558;2022-09-09T14:21:52;87200.00;;;
69597;BMP180;56802;51.184;-115.558;2022-09-09T14:24:21;87203.80;;;
69597;BMP180;56802;51.184;-115.558;2022-09-09T14:26:50;87209.20;;;
69597;BMP180;56802;51.184;-115.558;2022-09-09T14:29:20;87206.40;;;
69597;BMP180;56802;51.184;-115.558;2022-09-09T14:31:49;87204.80;;;
69597;BMP180;56802;51.184;-115.558;2022-09-09T14:34:18;87208.80;;;
69597;BMP180;56802;51.184;-115.558;2022-09-09T14:36:48;87210.60;;;
69597;BMP180;56802;51.184;-115.558;2022-09-09T14:39:17;87212.60;;;
69597;BMP180;56802;51.184;-115.558;2022-09-09T14:41:46;87217.40;;;
69597;BMP180;56802;51.184;-115.558;2022-09-09T14:44:15;87214.40;;;
69597;BMP180;56802;51.184;-115.558;2022-09-09T14:46:47;87218.20;;;
69597;BMP180;56802;51.184;-115.558;2022-09-09T14:49:18;87219.20;;;
69597;BMP180;56802;51.184;-115.558;2022-09-09T14:51:47;87221.40;;;
69597;BMP180;56802;51.184;-115.558;2022-09-09T14:54:19;87223.60;;;
69597;BMP180;56802;51.184;-115.558;2022-09-09T14:56:51;87223.60;;;
69597;BMP180;56802;51.184;-115.558;2022-09-09T14:59:21;87222.20;;;
69597;BMP180;56802;51.184;-115.558;2022-09-09T15:01:50;87224.00;;;
69597;BMP180;56802;51.184;-115.558;2022-09-09T15:04:19;87221.80;;;
69597;BMP180;56802;51.184;-115.558;2022-09-09T15:06:49;87220.00;;;
69597;BMP180;56802;51.184;-115.558;2022-09-09T15:09:20;87225.00;;;
69597;BMP180;56802;51.184;-115.558;2022-09-09T15:11:51;87221.80;;;
69597;BMP180;56802;51.184;-115.558;2022-09-09T15:14:20;87224.60;;;
69597;BMP180;56802;51.184;-115.558;2022-09-09T15:16:52;87228.00;;;
69597;BMP180;56802;51.184;-115.558;2022-09-09T15:19:21;87221.40;;;
69597;BMP180;56802;51.184;-115.558;2022-09-09T15:21:51;87221.40;;;
69597;BMP180;56802;51.184;-115.558;2022-09-09T15:24:20;87221.40;;;
69597;BMP180;56802;51.184;-115.558;2022-09-09T15:26:49;87221.60;;;
69597;BMP180;56802;51.184;-115.558;2022-09-09T15:29:19;87227.00;;;
69597;BMP180;56802;51.184;-115.558;2022-09-09T15:31:48;87232.40;;;
69597;BMP180;56802;51.184;-115.558;2022-09-09T15:34:18;87229.60;;;
69597;BMP180;56802;51.184;-115.558;2022-09-09T15:36:47;87231.80;;;
69597;BMP180;56802;51.184;-115.558;2022-09-09T15:39:18;87228.20;;;
69597;BMP180;56802;51.184;-115.558;2022-09-09T15:41:57;87226.60;;;
69597;BMP180;56802;51.184;-115.558;2022-09-09T15:44:26;87225.40;;;
69597;BMP180;56802;51.184;-115.558;2022-09-09T15:46:58;87223.00;;;
69597;BMP180;56802;51.184;-115.558;2022-09-09T15:49:27;87221.40;;;
69597;BMP180;56802;51.184;-115.558;2022-09-09T15:51:59;87215.20;;;
69597;BMP180;56802;51.184;-115.558;2022-09-09T15:54:35;87219.60;;;
69597;BMP180;56802;51.184;-115.558;2022-09-09T15:57:11;87216.00;;;
69597;BMP180;56802;51.184;-115.558;2022-09-09T15:59:41;87219.80;;;
69597;BMP180;56802;51.184;-115.558;2022-09-09T16:02:13;87216.00;;;
69597;BMP180;56802;51.184;-115.558;2022-09-09T16:04:43;87217.80;;;
69597;BMP180;56802;51.184;-115.558;2022-09-09T16:07:12;87217.20;;;
69597;BMP180;56802;51.184;-115.558;2022-09-09T16:09:42;87205.00;;;
69597;BMP180;56802;51.184;-115.558;2022-09-09T16:12:11;87208.20;;;
69597;BMP180;56802;51.184;-115.558;2022-09-09T16:14:41;87213.40;;;
69597;BMP180;56802;51.184;-115.558;2022-09-09T16:17:10;87217.40;;;
69597;BMP180;56802;51.184;-115.558;2022-09-09T16:19:40;87214.80;;;
69597;BMP180;56802;51.184;-115.558;2022-09-09T16:22:09;87219.00;;;
69597;BMP180;56802;51.184;-115.558;2022-09-09T16:24:39;87217.80;;;
69597;BMP180;56802;51.184;-115.558;2022-09-09T16:27:08;87219.40;;;
69597;BMP180;56802;51.184;-115.558;2022-09-09T16:29:40;87220.60;;;
69597;BMP180;56802;51.184;-115.558;2022-09-09T16:32:09;87218.00;;;
69597;BMP180;56802;51.184;-115.558;2022-09-09T16:34:38;87220.80;;;
69597;BMP180;56802;51.184;-115.558;2022-09-09T16:37:08;87222.60;;;
69597;BMP180;56802;51.184;-115.558;2022-09-09T16:39:39;87221.80;;;
69597;BMP180;56802;51.184;-115.558;2022-09-09T16:42:09;87220.40;;;
69597;BMP180;56802;51.184;-115.558;2022-09-09T16:44:39;87216.00;;;
69597;BMP180;56802;51.184;-115.558;2022-09-09T16:47:08;87219.80;;;
69597;BMP180;56802;51.184;-115.558;2022-09-09T16:49:37;87211.40;;;
69597;BMP180;56802;51.184;-115.558;2022-09-09T16:52:06;87209.60;;;
69597;BMP180;56802;51.184;-115.558;2022-09-09T16:54:36;87212.40;;;
69597;BMP180;56802;51.184;-115.558;2022-09-09T16:57:05;87217.60;;;
69597;BMP180;56802;51.184;-115.558;2022-09-09T16:59:35;87214.80;;;
69597;BMP180;56802;51.184;-115.558;2022-09-09T17:02:04;87209.00;;;
69597;BMP180;56802;51.184;-115.558;2022-09-09T17:04:34;87207.00;;;
69597;BMP180;56802;51.184;-115.558;2022-09-09T17:07:03;87208.40;;;
69597;BMP180;56802;51.184;-115.558;2022-09-09T17:09:32;87211.00;;;
69597;BMP180;56802;51.184;-115.558;2022-09-09T17:12:02;87207.00;;;
69597;BMP180;56802;51.184;-115.558;2022-09-09T17:14:31;87205.40;;;
69597;BMP180;56802;51.184;-115.558;2022-09-09T17:17:00;87199.60;;;
69597;BMP180;56802;51.184;-115.558;2022-09-09T17:19:51;87201.20;;;
69597;BMP180;56802;51.184;-115.558;2022-09-09T17:22:20;87195.80;;;
69597;BMP180;56802;51.184;-115.558;2022-09-09T17:24:49;87198.80;;;
69597;BMP180;56802;51.184;-115.558;2022-09-09T17:27:18;87203.60;;;
69597;BMP180;56802;51.184;-115.558;2022-09-09T17:29:48;87197.60;;;
69597;BMP180;56802;51.184;-115.558;2022-09-09T17:32:17;87185.80;;;
69597;BMP180;56802;51.184;-115.558;2022-09-09T17:34:46;87186.40;;;